Aviation Digital Data Service (ADDS)

Output produced by METARs form (0118 UTC 16 January 2019)
found at http://www.aviationweather.gov/metar/data/
 
TAF TFFR 152300Z 1600/1624 10008KT 9999 SCT030 
     BECMG 1600/1602 VRB02KT 
     PROB30 
     TEMPO 1600/1624 4000 SHRA BKN015TCU 
     BECMG 1612/1614 11012KT